createdAt,value
2023-03-16T04:54:35.431Z,7.19
2023-03-16T04:55:35.419Z,6.19
2023-03-16T04:56:35.439Z,6.50
2023-03-16T04:57:35.408Z,6.69
2023-03-16T05:03:35.342Z,6.30
2023-03-16T05:04:35.334Z,6.90
2023-03-16T05:09:35.285Z,7.69
2023-03-16T05:10:35.274Z,7.19
2023-03-16T05:11:35.308Z,7.40
2023-03-16T05:12:35.251Z,6.69
2023-03-16T05:13:35.235Z,7.30
2023-03-16T05:14:35.238Z,7.40
2023-03-16T05:15:35.316Z,6.90
2023-03-16T05:16:35.206Z,7.90
2023-03-16T05:17:35.199Z,6.30
2023-03-16T05:18:35.195Z,7.30
2023-03-16T05:19:35.178Z,7.19
2023-03-16T05:20:35.165Z,6.80
2023-03-16T05:21:35.154Z,7.59
2023-03-16T05:22:35.148Z,7.90
2023-03-16T05:23:35.142Z,7.00
2023-03-16T05:24:35.127Z,7.30
2023-03-16T05:25:35.135Z,8.00
2023-03-16T05:26:35.103Z,7.69
2023-03-16T05:27:35.095Z,7.30
2023-03-16T05:29:35.074Z,6.80
2023-03-16T05:30:35.062Z,7.30
2023-03-16T05:31:35.147Z,7.50
2023-03-16T05:32:35.110Z,6.90
2023-03-16T05:33:35.033Z,6.69
2023-03-16T05:34:35.022Z,7.40
2023-03-16T05:35:35.068Z,8.60
2023-03-16T05:36:35.005Z,6.69
2023-03-16T05:37:34.988Z,8.19
2023-03-16T05:38:34.982Z,7.69
2023-03-16T05:39:34.973Z,7.00
2023-03-16T05:40:34.963Z,6.59
2023-03-16T05:42:34.939Z,6.90
2023-03-16T05:43:34.930Z,6.80
2023-03-16T05:44:34.918Z,6.69
2023-03-16T05:45:34.913Z,6.80
2023-03-16T05:46:35.005Z,6.50
2023-03-16T05:47:34.916Z,6.30
2023-03-16T05:48:34.882Z,6.59
2023-03-16T05:49:34.869Z,10.50
2023-03-16T05:50:34.859Z,7.00
2023-03-16T05:51:34.848Z,6.69
2023-03-16T05:52:34.840Z,6.90
2023-03-16T05:53:34.830Z,7.50
2023-03-16T05:54:34.818Z,6.59
2023-03-16T05:55:34.807Z,7.40
2023-03-16T05:56:34.798Z,7.59
2023-03-16T05:57:34.787Z,7.09
2023-03-16T05:58:34.836Z,7.69
2023-03-16T05:59:34.774Z,6.90
2023-03-16T06:00:34.760Z,7.50
2023-03-16T06:01:34.744Z,7.30
2023-03-16T06:02:34.832Z,9.30
2023-03-16T06:03:34.814Z,7.09
2023-03-16T06:04:34.732Z,6.90
2023-03-16T06:05:34.704Z,7.19
2023-03-16T06:06:34.700Z,6.90
2023-03-16T06:07:34.697Z,8.30
2023-03-16T06:08:34.674Z,7.50
2023-03-16T06:09:34.678Z,6.50
2023-03-16T06:10:34.656Z,6.90
2023-03-16T06:13:34.621Z,7.00
2023-03-16T06:14:34.614Z,6.69
2023-03-16T06:15:34.601Z,7.40
2023-03-16T06:16:34.676Z,7.30
2023-03-16T06:17:34.600Z,7.19
2023-03-16T06:18:34.582Z,7.80
2023-03-16T06:19:34.592Z,8.50
2023-03-16T06:20:34.554Z,7.50
2023-03-16T06:21:34.546Z,7.80
2023-03-16T06:22:34.529Z,7.00
2023-03-16T06:23:34.525Z,7.19
2023-03-16T06:24:34.512Z,7.19
2023-03-16T06:25:34.504Z,7.09
2023-03-16T06:26:34.497Z,7.19
2023-03-16T06:27:34.491Z,8.89
2023-03-16T06:28:34.558Z,7.50
2023-03-16T06:29:34.466Z,6.80
2023-03-16T06:30:34.456Z,7.40
2023-03-16T06:31:34.506Z,6.90
2023-03-16T06:32:34.475Z,6.00
2023-03-16T06:33:34.464Z,6.09
2023-03-16T06:34:36.273Z,6.90
2023-03-16T06:35:34.477Z,8.00
2023-03-16T06:36:34.416Z,8.19
2023-03-16T06:37:34.388Z,6.90
2023-03-16T06:38:34.433Z,6.90
2023-03-16T06:39:34.366Z,8.50
2023-03-16T06:40:34.352Z,7.50
2023-03-16T06:41:34.340Z,6.90
2023-03-16T06:42:34.334Z,8.10
2023-03-16T06:43:34.328Z,7.80
2023-03-16T06:44:34.308Z,6.90
2023-03-16T06:45:34.357Z,8.10
2023-03-16T06:47:34.285Z,7.59
2023-03-16T06:48:34.274Z,7.30
2023-03-16T06:49:34.263Z,7.19
2023-03-16T06:50:34.253Z,6.40
2023-03-16T06:51:34.291Z,8.00
2023-03-16T06:52:34.237Z,7.30
2023-03-16T06:53:34.258Z,7.69
2023-03-16T06:54:34.220Z,7.30
2023-03-16T06:55:34.208Z,7.19
2023-03-16T06:56:34.194Z,6.09
2023-03-16T06:58:34.177Z,7.09
2023-03-16T06:59:34.163Z,7.40
2023-03-16T07:00:34.283Z,6.90
2023-03-16T07:01:34.192Z,6.90
2023-03-16T07:02:34.130Z,7.80
2023-03-16T07:04:34.236Z,7.00
2023-03-16T07:05:34.106Z,6.80
2023-03-16T07:09:36.751Z,7.69
2023-03-16T07:11:34.046Z,7.00
2023-03-16T07:12:34.035Z,6.90
2023-03-16T07:13:34.021Z,7.59
2023-03-16T07:14:34.011Z,7.69
2023-03-16T07:15:34.002Z,9.30
2023-03-16T07:18:33.969Z,8.30
2023-03-16T07:19:33.959Z,9.00
2023-03-16T07:20:33.947Z,8.80
2023-03-16T07:21:33.947Z,7.69
2023-03-16T07:22:33.932Z,9.69
2023-03-16T07:23:33.954Z,8.80
2023-03-16T07:24:33.905Z,7.80
2023-03-16T07:25:33.897Z,10.00
2023-03-16T07:26:33.889Z,6.59
2023-03-16T07:28:34.021Z,7.30
2023-03-16T07:29:33.858Z,7.00
2023-03-16T07:30:33.847Z,7.80
2023-03-16T07:31:33.878Z,6.09
2023-03-16T07:32:33.868Z,7.90
2023-03-16T07:33:33.819Z,7.40
2023-03-16T07:34:33.810Z,6.09
2023-03-16T07:35:33.796Z,6.90
2023-03-16T07:36:33.786Z,6.19
2023-03-16T07:37:33.777Z,7.59
2023-03-16T07:38:33.782Z,7.40
2023-03-16T07:39:33.803Z,6.09
2023-03-16T07:40:33.745Z,7.90
2023-03-16T07:41:33.735Z,5.80
2023-03-16T07:42:33.724Z,5.50
2023-03-16T07:43:33.709Z,7.00
2023-03-16T07:44:33.701Z,7.50
2023-03-16T07:46:33.917Z,6.09
2023-03-16T07:47:33.756Z,6.80
2023-03-16T07:48:33.664Z,5.90
2023-03-16T07:49:33.651Z,5.80
2023-03-16T07:50:33.640Z,5.90
2023-03-16T07:51:33.633Z,6.00
2023-03-16T07:52:35.793Z,7.09
2023-03-16T07:53:33.626Z,6.59
2023-03-16T07:54:33.597Z,7.30
2023-03-16T07:55:33.612Z,5.40
2023-03-16T07:56:47.522Z,7.69
2023-03-16T07:57:34.596Z,6.00
2023-03-16T07:58:33.560Z,8.19
2023-03-16T07:59:33.548Z,5.40
2023-03-16T08:00:33.535Z,5.69
2023-03-16T08:01:33.527Z,7.50
2023-03-16T08:02:33.604Z,6.30
2023-03-16T08:03:33.554Z,5.69
2023-03-16T08:04:33.501Z,6.00
2023-03-16T08:05:33.484Z,7.09
2023-03-16T08:06:33.474Z,6.19
2023-03-16T08:07:33.467Z,6.50
2023-03-16T08:08:33.455Z,5.30
2023-03-16T08:09:33.447Z,5.50
2023-03-16T08:10:33.497Z,6.80
2023-03-16T08:11:33.449Z,6.90
2023-03-16T08:12:33.500Z,6.69
2023-03-16T08:13:33.406Z,7.59
2023-03-16T08:14:33.396Z,6.09
2023-03-16T08:15:33.433Z,7.09
2023-03-16T08:16:33.463Z,8.50
2023-03-16T08:17:33.367Z,6.90
2023-03-16T08:18:33.351Z,7.19
2023-03-16T08:19:33.344Z,7.19
2023-03-16T08:20:33.338Z,6.00
2023-03-16T08:21:33.347Z,7.00
2023-03-16T08:22:33.315Z,6.90
2023-03-16T08:24:33.293Z,6.59
2023-03-16T08:25:33.294Z,6.00
2023-03-16T08:26:33.272Z,6.09
2023-03-16T08:27:33.325Z,6.90
2023-03-16T08:28:33.280Z,7.40
2023-03-16T08:29:33.244Z,7.09
2023-03-16T08:30:33.336Z,7.59
2023-03-16T08:31:33.312Z,8.89
2023-03-16T08:32:33.276Z,6.80
2023-03-16T08:33:33.208Z,6.00
2023-03-16T08:34:33.301Z,7.09
2023-03-16T08:35:33.228Z,8.69
2023-03-16T08:36:33.174Z,7.69
2023-03-16T08:37:33.161Z,8.60
2023-03-16T08:38:33.152Z,6.30
2023-03-16T08:39:33.146Z,7.00
2023-03-16T08:40:33.134Z,5.90
2023-03-16T08:41:33.124Z,7.30
2023-03-16T08:42:33.112Z,7.50
2023-03-16T08:43:33.140Z,8.39
2023-03-16T08:44:33.231Z,7.69
2023-03-16T08:45:33.083Z,8.10
2023-03-16T08:46:33.123Z,8.19
2023-03-16T08:47:33.063Z,6.90
2023-03-16T08:48:33.049Z,6.69
2023-03-16T08:49:33.041Z,9.89
2023-03-16T08:50:33.026Z,7.09
2023-03-16T08:51:33.022Z,6.69
2023-03-16T08:52:33.009Z,8.30
2023-03-16T08:53:33.000Z,8.30
2023-03-16T08:54:33.063Z,7.09
2023-03-16T08:55:32.988Z,8.30
2023-03-16T08:56:32.968Z,8.39
2023-03-16T08:57:32.955Z,7.90
2023-03-16T08:58:33.002Z,7.59
2023-03-16T08:59:32.967Z,7.69
2023-03-16T09:00:32.928Z,10.50
2023-03-16T09:01:32.975Z,7.40
2023-03-16T09:02:32.912Z,8.39
2023-03-16T09:03:32.893Z,8.60
2023-03-16T09:04:33.077Z,6.80
2023-03-16T09:05:32.876Z,6.69
2023-03-16T09:06:32.863Z,7.09
2023-03-16T09:07:32.852Z,7.80
2023-03-16T09:08:32.901Z,8.19
2023-03-16T09:09:32.832Z,8.00
2023-03-16T09:10:32.827Z,8.00
2023-03-16T09:11:32.815Z,7.50
2023-03-16T09:12:32.805Z,7.59
2023-03-16T09:13:32.802Z,7.69
2023-03-16T09:14:32.800Z,7.80
2023-03-16T09:15:32.809Z,7.00
2023-03-16T09:16:32.819Z,7.50
2023-03-16T09:17:32.752Z,8.39
2023-03-16T09:18:32.744Z,8.00
2023-03-16T09:19:49.955Z,7.30
2023-03-16T09:20:33.817Z,8.89
2023-03-16T09:21:32.710Z,8.50
2023-03-16T09:22:32.703Z,6.80
2023-03-16T09:23:32.696Z,7.19
2023-03-16T09:24:32.685Z,11.19
2023-03-16T09:25:32.695Z,7.19
2023-03-16T09:26:32.765Z,7.59
2023-03-16T09:27:32.650Z,7.50
2023-03-16T09:28:32.644Z,8.89
2023-03-16T09:29:32.634Z,7.40
2023-03-16T09:30:32.623Z,8.30
2023-03-16T09:31:32.648Z,7.80
2023-03-16T09:32:32.641Z,7.30
2023-03-16T09:33:32.590Z,8.69
2023-03-16T09:34:33.335Z,9.60
2023-03-16T09:35:35.015Z,7.30
2023-03-16T09:36:32.561Z,7.90
2023-03-16T09:37:44.519Z,9.19
2023-03-16T09:38:33.667Z,9.19
2023-03-16T09:39:32.531Z,8.89
2023-03-16T09:40:32.523Z,8.80
2023-03-16T09:41:32.512Z,8.60
2023-03-16T09:42:32.505Z,8.00
2023-03-16T09:43:32.498Z,9.30
2023-03-16T09:44:32.484Z,9.50
2023-03-16T09:45:32.947Z,9.19
2023-03-16T09:46:33.916Z,8.89
2023-03-16T09:47:32.476Z,8.69
2023-03-16T09:48:32.454Z,8.69
2023-03-16T09:49:32.458Z,8.80
2023-03-16T09:50:47.112Z,9.10
2023-03-16T09:51:32.429Z,8.19
2023-03-16T09:52:32.403Z,8.80
2023-03-16T09:53:32.397Z,9.39
2023-03-16T09:54:32.425Z,9.69
2023-03-16T09:55:32.377Z,10.19
2023-03-16T09:56:32.369Z,10.19
2023-03-16T09:57:32.458Z,9.30
2023-03-16T09:59:32.359Z,9.89
2023-03-16T10:00:32.350Z,11.19
2023-03-16T10:01:32.446Z,9.60
2023-03-16T10:02:32.317Z,10.00
2023-03-16T10:03:32.361Z,9.00
2023-03-16T10:04:32.302Z,9.39
2023-03-16T10:05:32.273Z,9.39
2023-03-16T10:08:32.254Z,9.60
2023-03-16T10:09:32.237Z,9.39
2023-03-16T10:14:32.189Z,9.50
2023-03-16T10:15:32.183Z,9.19
2023-03-16T10:16:32.225Z,9.30
2023-03-16T10:18:32.156Z,9.00
2023-03-16T10:21:32.126Z,9.19
2023-03-16T10:23:32.097Z,11.19
2023-03-16T10:29:32.056Z,11.30
2023-03-16T10:30:32.027Z,11.30
2023-03-16T10:32:32.078Z,9.30
2023-03-16T10:33:31.999Z,9.89
2023-03-16T10:34:32.019Z,9.00
2023-03-16T10:35:32.007Z,11.50
2023-03-16T10:36:31.984Z,10.89
2023-03-16T10:37:31.963Z,9.39
2023-03-16T10:38:31.971Z,9.10
2023-03-16T10:39:31.936Z,10.19
2023-03-16T10:40:31.929Z,8.89
2023-03-16T10:41:31.924Z,9.39
2023-03-16T10:42:31.948Z,9.10
2023-03-16T10:43:31.904Z,9.10
2023-03-16T10:44:31.892Z,8.39
2023-03-16T10:45:32.264Z,8.50
2023-03-16T10:46:31.997Z,9.39
2023-03-16T10:47:31.878Z,9.80
2023-03-16T10:48:33.933Z,9.60
2023-03-16T10:49:33.449Z,10.50
2023-03-16T10:50:31.836Z,10.10
2023-03-16T10:51:31.856Z,9.60
2023-03-16T10:52:31.820Z,10.10
2023-03-16T10:53:31.818Z,10.00
2023-03-16T10:54:31.818Z,12.89
2023-03-16T10:55:31.789Z,9.50
2023-03-16T10:56:31.800Z,9.39
2023-03-16T10:57:31.780Z,9.60
2023-03-16T10:58:31.776Z,9.00
2023-03-16T10:59:31.757Z,9.89
2023-03-16T11:00:31.745Z,10.19
2023-03-16T11:01:31.776Z,10.00
2023-03-16T11:02:31.738Z,10.10
2023-03-16T11:03:31.767Z,10.00
2023-03-16T11:04:31.815Z,9.80
2023-03-16T11:05:31.933Z,10.19
2023-03-16T11:06:31.687Z,11.00
2023-03-16T11:07:31.697Z,10.39
2023-03-16T11:08:31.694Z,9.10
2023-03-16T11:09:31.655Z,10.69
2023-03-16T11:10:33.173Z,8.80
2023-03-16T11:11:31.637Z,11.30
2023-03-16T11:12:31.630Z,9.89
2023-03-16T11:13:31.618Z,10.80
2023-03-16T11:14:31.605Z,9.39
2023-03-16T11:15:31.761Z,10.80
2023-03-16T11:16:31.719Z,9.10
2023-03-16T11:17:31.577Z,9.39
2023-03-16T11:18:31.569Z,10.10
2023-03-16T11:19:31.566Z,8.30
2023-03-16T11:20:31.556Z,9.00
2023-03-16T11:21:31.546Z,9.00
2023-03-16T11:22:31.536Z,10.00
2023-03-16T11:23:31.552Z,9.89
2023-03-16T11:24:31.517Z,9.39
2023-03-16T11:25:31.527Z,9.19
2023-03-16T11:26:31.514Z,9.39
2023-03-16T11:27:31.496Z,9.60
2023-03-16T11:28:31.482Z,9.89
2023-03-16T11:29:31.472Z,10.19
2023-03-16T11:30:31.464Z,10.30
2023-03-16T11:31:31.682Z,9.10
2023-03-16T11:32:31.490Z,9.30
2023-03-16T11:36:06.598Z,10.30
2023-03-16T11:37:07.975Z,10.60
2023-03-16T11:38:07.967Z,12.00
2023-03-16T11:39:07.993Z,9.69
2023-03-16T11:41:35.115Z,12.60
2023-03-16T11:42:36.535Z,9.69
2023-03-16T11:45:58.070Z,10.89
2023-03-16T11:45:59.539Z,9.89
2023-03-16T12:01:23.812Z,11.00
2023-03-16T12:01:25.282Z,10.39
2023-03-16T15:13:14.306Z,9.69
2023-03-16T16:02:25.236Z,10.69
2023-03-16T16:02:26.665Z,12.00
2023-03-16T16:03:33.857Z,12.89
2023-03-16T16:04:26.667Z,11.30
2023-03-16T16:05:26.633Z,11.00
2023-03-16T16:06:26.626Z,12.19
2023-03-16T16:07:26.628Z,10.69
2023-03-16T16:08:26.610Z,11.19
2023-03-16T16:24:24.323Z,11.60
2023-03-16T16:24:25.742Z,11.50
2023-03-16T16:26:54.321Z,11.39
2023-03-16T16:26:56.444Z,11.69
2023-03-16T16:28:40.959Z,10.89
2023-03-16T16:28:56.405Z,12.19
2023-03-16T16:29:56.394Z,15.19
2023-03-16T16:30:56.380Z,13.60
2023-03-16T16:31:56.479Z,10.39
2023-03-16T16:32:58.608Z,11.80
2023-03-16T16:33:56.352Z,11.69
2023-03-16T16:35:04.112Z,11.19
2023-03-16T16:35:57.430Z,11.30
2023-03-16T16:36:56.365Z,12.50
2023-03-16T16:37:56.314Z,11.39
2023-03-16T16:38:56.305Z,12.30
2023-03-16T16:39:56.320Z,10.69
2023-03-16T16:40:56.287Z,11.10
2023-03-16T16:41:56.299Z,12.10
2023-03-16T16:42:56.266Z,12.69
2023-03-16T16:43:56.256Z,14.00
2023-03-16T16:44:56.245Z,12.69
2023-03-16T16:45:56.283Z,12.00
2023-03-16T16:46:56.239Z,12.00
2023-03-16T16:47:56.223Z,12.69
2023-03-16T16:48:56.205Z,13.89
2023-03-16T16:49:56.201Z,11.89
2023-03-16T16:50:56.189Z,14.10
2023-03-16T16:51:56.182Z,11.19
2023-03-16T16:52:56.166Z,12.50
2023-03-16T16:53:56.155Z,11.80
2023-03-16T16:54:56.150Z,12.80
2023-03-16T16:55:56.159Z,12.50
2023-03-16T16:56:56.132Z,12.00
2023-03-16T16:57:56.125Z,12.39
2023-03-16T16:58:56.104Z,14.30
2023-03-16T16:59:56.097Z,13.39
2023-03-16T17:00:56.123Z,12.69
2023-03-16T17:01:56.082Z,11.50
2023-03-16T17:02:56.068Z,14.60
2023-03-16T17:03:56.059Z,13.39
2023-03-16T17:04:56.137Z,12.39
2023-03-16T17:05:56.052Z,13.69
2023-03-16T17:06:56.080Z,14.19
2023-03-16T17:07:56.026Z,13.50
2023-03-16T17:08:56.011Z,12.00
2023-03-16T17:09:56.000Z,14.30
2023-03-16T17:10:55.988Z,13.50
2023-03-16T17:11:56.037Z,14.69
2023-03-16T17:12:56.044Z,13.89
2023-03-16T17:13:55.954Z,13.60
2023-03-16T17:14:55.947Z,14.80
2023-03-16T17:15:55.933Z,16.20
2023-03-16T17:16:56.024Z,14.60
2023-03-16T17:17:55.912Z,14.69
2023-03-16T17:18:55.906Z,14.00
2023-03-16T17:19:55.895Z,14.39
2023-03-16T17:20:55.886Z,17.39
2023-03-16T17:21:55.878Z,15.00
2023-03-16T17:22:55.863Z,18.10
2023-03-16T17:23:55.853Z,15.60
2023-03-16T17:24:55.860Z,19.00
2023-03-16T17:25:55.836Z,13.80
2023-03-16T17:26:55.838Z,16.60
2023-03-16T17:27:55.854Z,13.50
2023-03-16T17:28:55.803Z,13.50
2023-03-16T17:29:55.795Z,13.89
2023-03-16T17:30:55.816Z,14.60
2023-03-16T17:31:55.773Z,15.69
2023-03-16T17:32:55.821Z,17.60
2023-03-16T17:33:55.753Z,13.69
2023-03-16T17:34:55.741Z,14.69
2023-03-16T17:35:55.801Z,15.89
2023-03-16T17:36:55.751Z,15.39
2023-03-16T17:37:55.713Z,15.30
2023-03-16T17:38:55.755Z,14.89
2023-03-16T17:39:57.525Z,15.89
2023-03-16T17:40:55.690Z,15.89
2023-03-16T17:41:55.675Z,13.50
2023-03-16T17:42:55.665Z,14.89
2023-03-16T17:43:55.687Z,16.50
2023-03-16T17:44:55.644Z,14.80
2023-03-16T17:45:55.721Z,16.00
2023-03-16T17:46:55.627Z,15.30
2023-03-16T17:47:55.615Z,15.19
2023-03-16T17:48:55.620Z,17.29
2023-03-16T17:49:55.600Z,16.29
2023-03-16T17:50:55.592Z,14.30
2023-03-16T17:51:55.574Z,17.89
2023-03-16T17:52:55.563Z,18.00
2023-03-16T17:53:55.550Z,17.39
2023-03-16T17:54:55.564Z,19.10
2023-03-16T17:55:55.535Z,17.70
2023-03-16T17:56:55.525Z,16.50
2023-03-16T17:57:55.512Z,17.29
2023-03-16T18:00:55.491Z,18.00
2023-03-16T18:01:55.543Z,16.39
2023-03-16T18:02:55.456Z,18.29
2023-03-16T18:07:55.408Z,16.50
2023-03-16T18:08:55.395Z,15.80
2023-03-16T18:09:55.385Z,17.89
2023-03-16T18:10:55.373Z,16.29
2023-03-16T18:11:55.370Z,17.00
2023-03-16T18:12:55.352Z,17.00
2023-03-16T18:29:55.187Z,17.79
2023-03-16T18:30:55.231Z,18.50
2023-03-16T18:38:55.096Z,19.89
2023-03-16T18:42:55.080Z,19.50
2023-03-16T18:43:55.054Z,18.89
2023-03-16T19:22:54.642Z,19.70
2023-03-16T19:24:54.670Z,16.89
2023-03-16T20:15:54.109Z,17.89
2023-03-16T20:17:54.078Z,19.89
2023-03-16T20:20:54.055Z,20.20
2023-03-16T20:21:54.049Z,19.29
2023-03-16T21:33:53.304Z,19.39
2023-03-16T21:37:53.262Z,18.20
2023-03-16T21:48:53.170Z,18.89
2023-03-16T21:49:53.143Z,17.89
2023-03-16T21:50:53.181Z,18.89
2023-03-16T21:51:53.118Z,19.10
2023-03-16T21:53:53.098Z,19.29
2023-03-16T21:54:53.096Z,20.89
2023-03-16T21:55:53.082Z,19.20
2023-03-16T21:56:53.167Z,19.00
2023-03-16T21:57:53.060Z,18.39
2023-03-16T21:58:53.048Z,19.29
2023-03-16T21:59:53.067Z,17.50
2023-03-16T22:00:53.028Z,19.20
2023-03-16T22:02:01.590Z,20.10
2023-03-16T22:03:53.213Z,20.10
2023-03-16T22:04:53.001Z,17.29
2023-03-16T22:05:52.976Z,19.70
2023-03-16T22:06:52.985Z,19.89
2023-03-16T22:07:52.955Z,18.60
2023-03-16T22:08:52.951Z,17.20
2023-03-16T22:09:52.941Z,18.20
2023-03-16T22:10:52.926Z,18.29
2023-03-16T22:11:52.918Z,19.20
2023-03-16T22:12:52.903Z,18.70
2023-03-16T22:13:52.896Z,18.60
2023-03-16T22:14:52.885Z,19.79
2023-03-16T22:15:53.023Z,18.70
2023-03-16T22:16:52.860Z,18.50
2023-03-16T22:17:52.869Z,19.79
2023-03-16T22:18:52.842Z,18.89
2023-03-16T22:19:52.834Z,18.60
2023-03-16T22:20:52.825Z,17.60
2023-03-16T22:21:52.820Z,20.00
2023-03-16T22:22:52.798Z,19.89
2023-03-16T22:23:52.789Z,18.70
2023-03-16T22:24:52.778Z,19.60
2023-03-16T22:26:52.766Z,30.89
2023-03-16T22:27:52.749Z,21.50
2023-03-16T22:28:52.741Z,19.00
2023-03-16T22:29:52.734Z,19.10
2023-03-16T22:30:52.720Z,21.50
2023-03-16T22:31:52.769Z,17.70
2023-03-16T22:33:52.702Z,19.50
2023-03-16T22:34:52.697Z,18.89
2023-03-16T22:37:52.661Z,18.29
2023-03-16T22:38:52.642Z,17.39
2023-03-16T22:39:52.632Z,19.00
2023-03-16T22:41:52.608Z,18.00
2023-03-16T22:44:52.574Z,17.89
2023-03-16T22:45:52.574Z,21.10
2023-03-16T22:48:52.540Z,18.29
2023-03-16T22:49:52.524Z,19.89
2023-03-16T22:50:52.519Z,19.00
2023-03-16T22:52:52.503Z,19.00
2023-03-16T22:53:52.490Z,19.50
2023-03-16T22:54:52.484Z,19.60
2023-03-16T22:55:52.464Z,19.70
2023-03-16T22:56:52.453Z,19.10
2023-03-16T22:57:52.441Z,19.89
2023-03-16T22:58:52.436Z,19.50
2023-03-16T23:00:52.434Z,19.79
